sensor_id;sensor_type;location;lat;lon;timestamp;P1;P2;P0
72023;PMS5003;59889;50.700;5.440;2023-11-22T00:02:01;2;1;
72023;PMS5003;59889;50.700;5.440;2023-11-22T00:04:26;3;3;
72023;PMS5003;59889;50.700;5.440;2023-11-22T00:06:51;1;1;
72023;PMS5003;59889;50.700;5.440;2023-11-22T00:09:16;2;2;
72023;PMS5003;59889;50.700;5.440;2023-11-22T00:11:42;2;2;
72023;PMS5003;59889;50.700;5.440;2023-11-22T00:14:06;3;2;
72023;PMS5003;59889;50.700;5.440;2023-11-22T00:16:32;1;1;
72023;PMS5003;59889;50.700;5.440;2023-11-22T00:18:57;4;3;
72023;PMS5003;59889;50.700;5.440;2023-11-22T00:21:22;2;2;
72023;PMS5003;59889;50.700;5.440;2023-11-22T00:23:47;2;2;
72023;PMS5003;59889;50.700;5.440;2023-11-22T00:26:12;1;1;
72023;PMS5003;59889;50.700;5.440;2023-11-22T00:28:37;1;1;
72023;PMS5003;59889;50.700;5.440;2023-11-22T00:31:02;2;2;
72023;PMS5003;59889;50.700;5.440;2023-11-22T00:33:27;3;2;
72023;PMS5003;59889;50.700;5.440;2023-11-22T00:35:52;3;3;
72023;PMS5003;59889;50.700;5.440;2023-11-22T00:38:17;2;2;
72023;PMS5003;59889;50.700;5.440;2023-11-22T00:40:42;2;2;
72023;PMS5003;59889;50.700;5.440;2023-11-22T00:43:07;3;2;
72023;PMS5003;59889;50.700;5.440;2023-11-22T00:45:32;3;3;
72023;PMS5003;59889;50.700;5.440;2023-11-22T00:47:57;2;2;
72023;PMS5003;59889;50.700;5.440;2023-11-22T00:50:22;2;2;
72023;PMS5003;59889;50.700;5.440;2023-11-22T00:52:47;1;1;
72023;PMS5003;59889;50.700;5.440;2023-11-22T00:55:12;2;2;
72023;PMS5003;59889;50.700;5.440;2023-11-22T00:57:37;2;2;
72023;PMS5003;59889;50.700;5.440;2023-11-22T01:00:02;1;1;
72023;PMS5003;59889;50.700;5.440;2023-11-22T01:02:27;2;2;
72023;PMS5003;59889;50.700;5.440;2023-11-22T01:04:53;1;1;
72023;PMS5003;59889;50.700;5.440;2023-11-22T01:07:17;2;2;
72023;PMS5003;59889;50.700;5.440;2023-11-22T01:09:42;1;1;
72023;PMS5003;59889;50.700;5.440;2023-11-22T01:12:07;2;2;
72023;PMS5003;59889;50.700;5.440;2023-11-22T01:14:32;1;1;
72023;PMS5003;59889;50.700;5.440;2023-11-22T01:16:57;1;1;
72023;PMS5003;59889;50.700;5.440;2023-11-22T01:19:22;2;2;
72023;PMS5003;59889;50.700;5.440;2023-11-22T01:21:47;2;2;
72023;PMS5003;59889;50.700;5.440;2023-11-22T01:24:12;2;2;
72023;PMS5003;59889;50.700;5.440;2023-11-22T01:26:37;2;2;
72023;PMS5003;59889;50.700;5.440;2023-11-22T01:29:03;3;3;
72023;PMS5003;59889;50.700;5.440;2023-11-22T01:31:28;1;1;
72023;PMS5003;59889;50.700;5.440;2023-11-22T01:33:53;1;1;
72023;PMS5003;59889;50.700;5.440;2023-11-22T01:36:18;0;0;
72023;PMS5003;59889;50.700;5.440;2023-11-22T01:38:43;1;1;
72023;PMS5003;59889;50.700;5.440;2023-11-22T01:41:08;2;2;
72023;PMS5003;59889;50.700;5.440;2023-11-22T01:43:33;0;0;
72023;PMS5003;59889;50.700;5.440;2023-11-22T01:45:58;2;2;
72023;PMS5003;59889;50.700;5.440;2023-11-22T01:48:23;2;2;
72023;PMS5003;59889;50.700;5.440;2023-11-22T01:50:48;2;2;
72023;PMS5003;59889;50.700;5.440;2023-11-22T01:53:13;2;2;
72023;PMS5003;59889;50.700;5.440;2023-11-22T01:55:38;1;1;
72023;PMS5003;59889;50.700;5.440;2023-11-22T01:58:03;1;1;
72023;PMS5003;59889;50.700;5.440;2023-11-22T02:00:28;1;1;
72023;PMS5003;59889;50.700;5.440;2023-11-22T02:02:53;1;1;
72023;PMS5003;59889;50.700;5.440;2023-11-22T02:05:18;2;2;
72023;PMS5003;59889;50.700;5.440;2023-11-22T02:07:43;1;1;
72023;PMS5003;59889;50.700;5.440;2023-11-22T02:10:08;2;2;
72023;PMS5003;59889;50.700;5.440;2023-11-22T02:12:33;2;2;
72023;PMS5003;59889;50.700;5.440;2023-11-22T02:14:58;2;2;
72023;PMS5003;59889;50.700;5.440;2023-11-22T02:17:23;4;1;
72023;PMS5003;59889;50.700;5.440;2023-11-22T02:19:48;2;2;
72023;PMS5003;59889;50.700;5.440;2023-11-22T02:22:13;1;1;
72023;PMS5003;59889;50.700;5.440;2023-11-22T02:24:38;1;1;
72023;PMS5003;59889;50.700;5.440;2023-11-22T02:27:03;1;1;
72023;PMS5003;59889;50.700;5.440;2023-11-22T02:29:29;2;2;
72023;PMS5003;59889;50.700;5.440;2023-11-22T02:31:54;2;2;
72023;PMS5003;59889;50.700;5.440;2023-11-22T02:34:19;3;2;
72023;PMS5003;59889;50.700;5.440;2023-11-22T02:36:44;3;2;
72023;PMS5003;59889;50.700;5.440;2023-11-22T02:39:09;2;2;
72023;PMS5003;59889;50.700;5.440;2023-11-22T02:41:34;3;3;
72023;PMS5003;59889;50.700;5.440;2023-11-22T02:43:59;1;1;
72023;PMS5003;59889;50.700;5.440;2023-11-22T02:46:24;2;2;
72023;PMS5003;59889;50.700;5.440;2023-11-22T02:48:49;2;2;
72023;PMS5003;59889;50.700;5.440;2023-11-22T02:51:14;4;2;
72023;PMS5003;59889;50.700;5.440;2023-11-22T02:53:39;3;2;
72023;PMS5003;59889;50.700;5.440;2023-11-22T02:56:04;3;3;
72023;PMS5003;59889;50.700;5.440;2023-11-22T02:58:29;2;2;
72023;PMS5003;59889;50.700;5.440;2023-11-22T03:00:54;2;2;
72023;PMS5003;59889;50.700;5.440;2023-11-22T03:03:19;2;2;
72023;PMS5003;59889;50.700;5.440;2023-11-22T03:05:44;2;2;
72023;PMS5003;59889;50.700;5.440;2023-11-22T03:08:09;2;1;
72023;PMS5003;59889;50.700;5.440;2023-11-22T03:10:34;2;2;
72023;PMS5003;59889;50.700;5.440;2023-11-22T03:12:59;2;2;
72023;PMS5003;59889;50.700;5.440;2023-11-22T03:15:24;2;2;
72023;PMS5003;59889;50.700;5.440;2023-11-22T03:17:49;3;3;
72023;PMS5003;59889;50.700;5.440;2023-11-22T03:20:14;1;1;
72023;PMS5003;59889;50.700;5.440;2023-11-22T03:22:39;2;2;
72023;PMS5003;59889;50.700;5.440;2023-11-22T03:25:04;2;2;
72023;PMS5003;59889;50.700;5.440;2023-11-22T03:27:30;1;1;
72023;PMS5003;59889;50.700;5.440;2023-11-22T03:29:54;1;1;
72023;PMS5003;59889;50.700;5.440;2023-11-22T03:32:19;1;1;
72023;PMS5003;59889;50.700;5.440;2023-11-22T03:34:45;2;2;
72023;PMS5003;59889;50.700;5.440;2023-11-22T03:37:10;2;2;
72023;PMS5003;59889;50.700;5.440;2023-11-22T03:39:35;2;2;
72023;PMS5003;59889;50.700;5.440;2023-11-22T03:42:00;1;1;
72023;PMS5003;59889;50.700;5.440;2023-11-22T03:44:25;3;3;
72023;PMS5003;59889;50.700;5.440;2023-11-22T03:46:50;2;2;
72023;PMS5003;59889;50.700;5.440;2023-11-22T03:49:15;2;2;
72023;PMS5003;59889;50.700;5.440;2023-11-22T03:51:40;2;2;
72023;PMS5003;59889;50.700;5.440;2023-11-22T03:54:05;2;2;
72023;PMS5003;59889;50.700;5.440;2023-11-22T03:56:30;0;0;
72023;PMS5003;59889;50.700;5.440;2023-11-22T03:58:55;2;2;
72023;PMS5003;59889;50.700;5.440;2023-11-22T04:01:20;1;1;
72023;PMS5003;59889;50.700;5.440;2023-11-22T04:03:45;0;0;
72023;PMS5003;59889;50.700;5.440;2023-11-22T04:06:10;2;2;
72023;PMS5003;59889;50.700;5.440;2023-11-22T04:08:35;2;2;
72023;PMS5003;59889;50.700;5.440;2023-11-22T04:11:00;1;1;
72023;PMS5003;59889;50.700;5.440;2023-11-22T04:13:25;3;2;
72023;PMS5003;59889;50.700;5.440;2023-11-22T04:15:50;2;1;
72023;PMS5003;59889;50.700;5.440;2023-11-22T04:18:15;2;2;
72023;PMS5003;59889;50.700;5.440;2023-11-22T04:20:40;5;3;
72023;PMS5003;59889;50.700;5.440;2023-11-22T04:23:05;2;2;
72023;PMS5003;59889;50.700;5.440;2023-11-22T04:25:30;1;1;
72023;PMS5003;59889;50.700;5.440;2023-11-22T04:27:55;2;2;
72023;PMS5003;59889;50.700;5.440;2023-11-22T04:30:20;2;2;
72023;PMS5003;59889;50.700;5.440;2023-11-22T04:32:45;0;0;
72023;PMS5003;59889;50.700;5.440;2023-11-22T04:35:10;2;2;
72023;PMS5003;59889;50.700;5.440;2023-11-22T04:37:35;2;2;
72023;PMS5003;59889;50.700;5.440;2023-11-22T04:40:01;2;2;
72023;PMS5003;59889;50.700;5.440;2023-11-22T04:42:26;2;1;
72023;PMS5003;59889;50.700;5.440;2023-11-22T04:44:51;1;1;
72023;PMS5003;59889;50.700;5.440;2023-11-22T04:47:16;2;2;
72023;PMS5003;59889;50.700;5.440;2023-11-22T04:49:41;2;2;
72023;PMS5003;59889;50.700;5.440;2023-11-22T04:52:06;2;2;
72023;PMS5003;59889;50.700;5.440;2023-11-22T04:54:31;3;2;
72023;PMS5003;59889;50.700;5.440;2023-11-22T04:56:56;2;2;
72023;PMS5003;59889;50.700;5.440;2023-11-22T04:59:21;3;3;
72023;PMS5003;59889;50.700;5.440;2023-11-22T05:01:46;2;2;
72023;PMS5003;59889;50.700;5.440;2023-11-22T05:04:11;2;2;
72023;PMS5003;59889;50.700;5.440;2023-11-22T05:06:36;2;1;
72023;PMS5003;59889;50.700;5.440;2023-11-22T05:09:02;3;3;
72023;PMS5003;59889;50.700;5.440;2023-11-22T05:11:26;2;1;
72023;PMS5003;59889;50.700;5.440;2023-11-22T05:13:51;1;1;
72023;PMS5003;59889;50.700;5.440;2023-11-22T05:16:16;2;2;
72023;PMS5003;59889;50.700;5.440;2023-11-22T05:18:41;4;3;
72023;PMS5003;59889;50.700;5.440;2023-11-22T05:21:06;2;2;
72023;PMS5003;59889;50.700;5.440;2023-11-22T05:23:31;1;1;
72023;PMS5003;59889;50.700;5.440;2023-11-22T05:25:56;7;5;
72023;PMS5003;59889;50.700;5.440;2023-11-22T05:28:21;7;6;
72023;PMS5003;59889;50.700;5.440;2023-11-22T05:30:47;11;10;
72023;PMS5003;59889;50.700;5.440;2023-11-22T05:33:12;10;10;
72023;PMS5003;59889;50.700;5.440;2023-11-22T05:35:36;12;11;
72023;PMS5003;59889;50.700;5.440;2023-11-22T05:38:01;12;11;
72023;PMS5003;59889;50.700;5.440;2023-11-22T05:40:27;13;12;
72023;PMS5003;59889;50.700;5.440;2023-11-22T05:42:52;12;11;
72023;PMS5003;59889;50.700;5.440;2023-11-22T05:45:17;12;11;
72023;PMS5003;59889;50.700;5.440;2023-11-22T05:47:42;13;13;
72023;PMS5003;59889;50.700;5.440;2023-11-22T05:50:07;12;11;
72023;PMS5003;59889;50.700;5.440;2023-11-22T05:52:32;15;14;
72023;PMS5003;59889;50.700;5.440;2023-11-22T05:54:58;14;13;
72023;PMS5003;59889;50.700;5.440;2023-11-22T05:57:24;16;15;
72023;PMS5003;59889;50.700;5.440;2023-11-22T05:59:49;12;11;
72023;PMS5003;59889;50.700;5.440;2023-11-22T06:02:14;17;17;
72023;PMS5003;59889;50.700;5.440;2023-11-22T06:04:40;17;12;
72023;PMS5003;59889;50.700;5.440;2023-11-22T06:07:05;17;16;
72023;PMS5003;59889;50.700;5.440;2023-11-22T06:09:30;13;12;
72023;PMS5003;59889;50.700;5.440;2023-11-22T06:11:55;15;13;
72023;PMS5003;59889;50.700;5.440;2023-11-22T06:14:22;13;12;
72023;PMS5003;59889;50.700;5.440;2023-11-22T06:16:46;14;12;
72023;PMS5003;59889;50.700;5.440;2023-11-22T06:19:12;12;12;
72023;PMS5003;59889;50.700;5.440;2023-11-22T06:21:38;17;15;
72023;PMS5003;59889;50.700;5.440;2023-11-22T06:24:03;18;17;
72023;PMS5003;59889;50.700;5.440;2023-11-22T06:26:28;17;15;
72023;PMS5003;59889;50.700;5.440;2023-11-22T06:28:53;15;15;
72023;PMS5003;59889;50.700;5.440;2023-11-22T06:31:19;11;10;
72023;PMS5003;59889;50.700;5.440;2023-11-22T06:33:45;12;11;
72023;PMS5003;59889;50.700;5.440;2023-11-22T06:36:09;19;17;
72023;PMS5003;59889;50.700;5.440;2023-11-22T06:38:35;16;13;
72023;PMS5003;59889;50.700;5.440;2023-11-22T06:41:00;11;11;
72023;PMS5003;59889;50.700;5.440;2023-11-22T06:43:25;13;12;
72023;PMS5003;59889;50.700;5.440;2023-11-22T06:45:50;13;12;
72023;PMS5003;59889;50.700;5.440;2023-11-22T06:48:15;12;11;
72023;PMS5003;59889;50.700;5.440;2023-11-22T06:50:40;14;12;
72023;PMS5003;59889;50.700;5.440;2023-11-22T06:53:05;11;11;
72023;PMS5003;59889;50.700;5.440;2023-11-22T06:55:31;13;12;
72023;PMS5003;59889;50.700;5.440;2023-11-22T06:57:56;12;11;
72023;PMS5003;59889;50.700;5.440;2023-11-22T07:00:22;17;16;
72023;PMS5003;59889;50.700;5.440;2023-11-22T07:02:47;13;12;
72023;PMS5003;59889;50.700;5.440;2023-11-22T07:05:12;14;13;
72023;PMS5003;59889;50.700;5.440;2023-11-22T07:07:37;13;12;
72023;PMS5003;59889;50.700;5.440;2023-11-22T07:10:03;12;10;
72023;PMS5003;59889;50.700;5.440;2023-11-22T07:12:28;12;11;
72023;PMS5003;59889;50.700;5.440;2023-11-22T07:14:53;12;12;
72023;PMS5003;59889;50.700;5.440;2023-11-22T07:17:18;12;10;
72023;PMS5003;59889;50.700;5.440;2023-11-22T07:19:43;16;13;
72023;PMS5003;59889;50.700;5.440;2023-11-22T07:22:08;12;12;
72023;PMS5003;59889;50.700;5.440;2023-11-22T07:24:34;14;12;
72023;PMS5003;59889;50.700;5.440;2023-11-22T07:26:59;17;13;
72023;PMS5003;59889;50.700;5.440;2023-11-22T07:29:24;15;14;
72023;PMS5003;59889;50.700;5.440;2023-11-22T07:31:50;15;13;
72023;PMS5003;59889;50.700;5.440;2023-11-22T07:34:15;19;18;
72023;PMS5003;59889;50.700;5.440;2023-11-22T07:36:40;19;17;
72023;PMS5003;59889;50.700;5.440;2023-11-22T07:39:06;17;17;
72023;PMS5003;59889;50.700;5.440;2023-11-22T07:41:31;17;17;
72023;PMS5003;59889;50.700;5.440;2023-11-22T07:43:56;16;15;
72023;PMS5003;59889;50.700;5.440;2023-11-22T07:46:21;22;21;
72023;PMS5003;59889;50.700;5.440;2023-11-22T07:48:46;17;15;
72023;PMS5003;59889;50.700;5.440;2023-11-22T07:51:13;18;17;
72023;PMS5003;59889;50.700;5.440;2023-11-22T07:53:37;23;23;
72023;PMS5003;59889;50.700;5.440;2023-11-22T07:56:03;23;20;
72023;PMS5003;59889;50.700;5.440;2023-11-22T07:58:28;21;19;
72023;PMS5003;59889;50.700;5.440;2023-11-22T08:00:53;19;18;
72023;PMS5003;59889;50.700;5.440;2023-11-22T08:03:19;23;17;
72023;PMS5003;59889;50.700;5.440;2023-11-22T08:05:44;21;20;
72023;PMS5003;59889;50.700;5.440;2023-11-22T08:08:09;20;19;
72023;PMS5003;59889;50.700;5.440;2023-11-22T08:10:35;20;20;
72023;PMS5003;59889;50.700;5.440;2023-11-22T08:13:00;22;18;
72023;PMS5003;59889;50.700;5.440;2023-11-22T08:15:25;19;19;
72023;PMS5003;59889;50.700;5.440;2023-11-22T08:17:52;19;17;
72023;PMS5003;59889;50.700;5.440;2023-11-22T08:20:16;22;18;
72023;PMS5003;59889;50.700;5.440;2023-11-22T08:22:42;17;16;
72023;PMS5003;59889;50.700;5.440;2023-11-22T08:25:08;17;17;
72023;PMS5003;59889;50.700;5.440;2023-11-22T08:27:33;23;22;
72023;PMS5003;59889;50.700;5.440;2023-11-22T08:29:58;20;19;
72023;PMS5003;59889;50.700;5.440;2023-11-22T08:32:23;23;21;
72023;PMS5003;59889;50.700;5.440;2023-11-22T08:34:48;20;18;
72023;PMS5003;59889;50.700;5.440;2023-11-22T08:37:13;18;16;
72023;PMS5003;59889;50.700;5.440;2023-11-22T08:39:39;20;19;
72023;PMS5003;59889;50.700;5.440;2023-11-22T08:42:05;18;17;
72023;PMS5003;59889;50.700;5.440;2023-11-22T08:44:30;20;19;
72023;PMS5003;59889;50.700;5.440;2023-11-22T08:46:55;23;20;
72023;PMS5003;59889;50.700;5.440;2023-11-22T08:49:21;24;22;
72023;PMS5003;59889;50.700;5.440;2023-11-22T08:51:47;20;17;
72023;PMS5003;59889;50.700;5.440;2023-11-22T08:54:12;19;19;
72023;PMS5003;59889;50.700;5.440;2023-11-22T08:56:37;23;22;
72023;PMS5003;59889;50.700;5.440;2023-11-22T08:59:02;19;17;
72023;PMS5003;59889;50.700;5.440;2023-11-22T09:01:27;20;19;
72023;PMS5003;59889;50.700;5.440;2023-11-22T09:03:52;21;19;
72023;PMS5003;59889;50.700;5.440;2023-11-22T09:06:18;15;14;
72023;PMS5003;59889;50.700;5.440;2023-11-22T09:08:43;19;18;
72023;PMS5003;59889;50.700;5.440;2023-11-22T09:11:08;19;19;
72023;PMS5003;59889;50.700;5.440;2023-11-22T09:13:34;21;19;
72023;PMS5003;59889;50.700;5.440;2023-11-22T09:16:00;20;18;
72023;PMS5003;59889;50.700;5.440;2023-11-22T09:18:25;19;19;
72023;PMS5003;59889;50.700;5.440;2023-11-22T09:20:50;21;20;
72023;PMS5003;59889;50.700;5.440;2023-11-22T09:23:16;27;24;
72023;PMS5003;59889;50.700;5.440;2023-11-22T09:25:41;19;17;
72023;PMS5003;59889;50.700;5.440;2023-11-22T09:28:06;25;23;
72023;PMS5003;59889;50.700;5.440;2023-11-22T09:30:32;18;16;
72023;PMS5003;59889;50.700;5.440;2023-11-22T09:32:56;20;19;
72023;PMS5003;59889;50.700;5.440;2023-11-22T09:35:21;17;15;
72023;PMS5003;59889;50.700;5.440;2023-11-22T09:37:47;20;20;
72023;PMS5003;59889;50.700;5.440;2023-11-22T09:40:12;20;19;
72023;PMS5003;59889;50.700;5.440;2023-11-22T09:42:37;18;18;
72023;PMS5003;59889;50.700;5.440;2023-11-22T09:45:03;19;18;
72023;PMS5003;59889;50.700;5.440;2023-11-22T09:47:29;21;20;
72023;PMS5003;59889;50.700;5.440;2023-11-22T09:49:55;17;17;
72023;PMS5003;59889;50.700;5.440;2023-11-22T09:52:19;18;17;
72023;PMS5003;59889;50.700;5.440;2023-11-22T09:54:45;25;23;
72023;PMS5003;59889;50.700;5.440;2023-11-22T09:57:10;26;25;
72023;PMS5003;59889;50.700;5.440;2023-11-22T09:59:35;20;20;
72023;PMS5003;59889;50.700;5.440;2023-11-22T10:02:01;21;19;
72023;PMS5003;59889;50.700;5.440;2023-11-22T10:04:26;20;17;
72023;PMS5003;59889;50.700;5.440;2023-11-22T10:06:51;18;18;
72023;PMS5003;59889;50.700;5.440;2023-11-22T10:09:17;25;24;
72023;PMS5003;59889;50.700;5.440;2023-11-22T10:11:42;21;19;
72023;PMS5003;59889;50.700;5.440;2023-11-22T10:14:08;20;19;
72023;PMS5003;59889;50.700;5.440;2023-11-22T10:16:33;21;19;
72023;PMS5003;59889;50.700;5.440;2023-11-22T10:18:58;23;21;
72023;PMS5003;59889;50.700;5.440;2023-11-22T10:21:24;17;17;
72023;PMS5003;59889;50.700;5.440;2023-11-22T10:23:48;18;16;
72023;PMS5003;59889;50.700;5.440;2023-11-22T10:26:14;16;16;
72023;PMS5003;59889;50.700;5.440;2023-11-22T10:28:39;19;18;
72023;PMS5003;59889;50.700;5.440;2023-11-22T10:31:06;16;15;
72023;PMS5003;59889;50.700;5.440;2023-11-22T10:33:30;19;17;
72023;PMS5003;59889;50.700;5.440;2023-11-22T10:35:55;18;17;
72023;PMS5003;59889;50.700;5.440;2023-11-22T10:38:21;17;16;
72023;PMS5003;59889;50.700;5.440;2023-11-22T10:40:47;18;16;
72023;PMS5003;59889;50.700;5.440;2023-11-22T10:43:13;20;16;
72023;PMS5003;59889;50.700;5.440;2023-11-22T10:45:38;16;16;
72023;PMS5003;59889;50.700;5.440;2023-11-22T10:48:04;17;16;
72023;PMS5003;59889;50.700;5.440;2023-11-22T10:50:29;16;15;
72023;PMS5003;59889;50.700;5.440;2023-11-22T10:52:56;16;16;
72023;PMS5003;59889;50.700;5.440;2023-11-22T10:55:21;20;18;
72023;PMS5003;59889;50.700;5.440;2023-11-22T10:57:46;18;16;
72023;PMS5003;59889;50.700;5.440;2023-11-22T11:00:11;16;16;
72023;PMS5003;59889;50.700;5.440;2023-11-22T11:02:40;18;17;
72023;PMS5003;59889;50.700;5.440;2023-11-22T11:05:03;16;14;
72023;PMS5003;59889;50.700;5.440;2023-11-22T11:07:27;15;14;
72023;PMS5003;59889;50.700;5.440;2023-11-22T11:09:52;21;21;
72023;PMS5003;59889;50.700;5.440;2023-11-22T11:12:18;16;16;
72023;PMS5003;59889;50.700;5.440;2023-11-22T11:14:43;19;17;
72023;PMS5003;59889;50.700;5.440;2023-11-22T11:17:08;17;15;
72023;PMS5003;59889;50.700;5.440;2023-11-22T11:19:34;15;14;
72023;PMS5003;59889;50.700;5.440;2023-11-22T11:22:00;20;19;
72023;PMS5003;59889;50.700;5.440;2023-11-22T11:24:25;15;14;
72023;PMS5003;59889;50.700;5.440;2023-11-22T11:26:50;14;14;
72023;PMS5003;59889;50.700;5.440;2023-11-22T11:31:41;17;16;
72023;PMS5003;59889;50.700;5.440;2023-11-22T11:34:06;18;17;
72023;PMS5003;59889;50.700;5.440;2023-11-22T11:36:32;14;14;
72023;PMS5003;59889;50.700;5.440;2023-11-22T11:38:58;15;14;
72023;PMS5003;59889;50.700;5.440;2023-11-22T11:41:24;15;15;
72023;PMS5003;59889;50.700;5.440;2023-11-22T11:43:48;16;14;
72023;PMS5003;59889;50.700;5.440;2023-11-22T11:46:13;15;13;
72023;PMS5003;59889;50.700;5.440;2023-11-22T11:48:42;14;14;
72023;PMS5003;59889;50.700;5.440;2023-11-22T11:51:04;20;16;
72023;PMS5003;59889;50.700;5.440;2023-11-22T11:53:29;19;19;
72023;PMS5003;59889;50.700;5.440;2023-11-22T11:55:54;16;16;
72023;PMS5003;59889;50.700;5.440;2023-11-22T11:58:19;15;13;
72023;PMS5003;59889;50.700;5.440;2023-11-22T12:00:45;18;17;
72023;PMS5003;59889;50.700;5.440;2023-11-22T12:03:10;17;17;
72023;PMS5003;59889;50.700;5.440;2023-11-22T12:05:36;17;15;
72023;PMS5003;59889;50.700;5.440;2023-11-22T12:08:01;15;14;
72023;PMS5003;59889;50.700;5.440;2023-11-22T12:10:26;12;12;
72023;PMS5003;59889;50.700;5.440;2023-11-22T12:12:52;19;18;
72023;PMS5003;59889;50.700;5.440;2023-11-22T12:15:17;14;13;
72023;PMS5003;59889;50.700;5.440;2023-11-22T12:17:42;16;15;
72023;PMS5003;59889;50.700;5.440;2023-11-22T12:20:10;16;15;
72023;PMS5003;59889;50.700;5.440;2023-11-22T12:22:33;20;14;
72023;PMS5003;59889;50.700;5.440;2023-11-22T12:24:59;14;13;
72023;PMS5003;59889;50.700;5.440;2023-11-22T12:27:25;20;19;
72023;PMS5003;59889;50.700;5.440;2023-11-22T12:29:50;16;15;
72023;PMS5003;59889;50.700;5.440;2023-11-22T12:32:15;15;14;
72023;PMS5003;59889;50.700;5.440;2023-11-22T12:34:40;16;15;
72023;PMS5003;59889;50.700;5.440;2023-11-22T12:37:06;15;15;
72023;PMS5003;59889;50.700;5.440;2023-11-22T12:39:31;17;16;
72023;PMS5003;59889;50.700;5.440;2023-11-22T12:41:56;14;13;
72023;PMS5003;59889;50.700;5.440;2023-11-22T12:44:21;13;13;
72023;PMS5003;59889;50.700;5.440;2023-11-22T12:46:47;18;17;
72023;PMS5003;59889;50.700;5.440;2023-11-22T12:49:12;11;11;
72023;PMS5003;59889;50.700;5.440;2023-11-22T12:51:37;12;11;
72023;PMS5003;59889;50.700;5.440;2023-11-22T12:54:02;17;16;
72023;PMS5003;59889;50.700;5.440;2023-11-22T12:56:27;13;13;
72023;PMS5003;59889;50.700;5.440;2023-11-22T12:58:52;15;14;
72023;PMS5003;59889;50.700;5.440;2023-11-22T13:01:17;15;14;
72023;PMS5003;59889;50.700;5.440;2023-11-22T13:03:42;16;16;
72023;PMS5003;59889;50.700;5.440;2023-11-22T13:06:07;13;13;
72023;PMS5003;59889;50.700;5.440;2023-11-22T13:08:32;12;11;
72023;PMS5003;59889;50.700;5.440;2023-11-22T13:10:57;13;13;
72023;PMS5003;59889;50.700;5.440;2023-11-22T13:13:23;16;16;
72023;PMS5003;59889;50.700;5.440;2023-11-22T13:15:48;13;12;
72023;PMS5003;59889;50.700;5.440;2023-11-22T13:18:14;20;18;
72023;PMS5003;59889;50.700;5.440;2023-11-22T13:20:39;13;11;
72023;PMS5003;59889;50.700;5.440;2023-11-22T13:23:04;14;13;
72023;PMS5003;59889;50.700;5.440;2023-11-22T13:25:29;18;17;
72023;PMS5003;59889;50.700;5.440;2023-11-22T13:27:55;16;15;
72023;PMS5003;59889;50.700;5.440;2023-11-22T13:30:20;13;13;
72023;PMS5003;59889;50.700;5.440;2023-11-22T13:32:46;12;11;
72023;PMS5003;59889;50.700;5.440;2023-11-22T13:35:11;19;17;
72023;PMS5003;59889;50.700;5.440;2023-11-22T13:37:36;13;13;
72023;PMS5003;59889;50.700;5.440;2023-11-22T13:40:02;13;12;
72023;PMS5003;59889;50.700;5.440;2023-11-22T13:42:27;15;15;
72023;PMS5003;59889;50.700;5.440;2023-11-22T13:44:52;13;13;
72023;PMS5003;59889;50.700;5.440;2023-11-22T13:47:18;16;16;
72023;PMS5003;59889;50.700;5.440;2023-11-22T13:49:43;11;11;
72023;PMS5003;59889;50.700;5.440;2023-11-22T13:52:08;16;13;
72023;PMS5003;59889;50.700;5.440;2023-11-22T13:54:34;15;14;
72023;PMS5003;59889;50.700;5.440;2023-11-22T13:56:59;15;14;
72023;PMS5003;59889;50.700;5.440;2023-11-22T13:59:24;15;14;
72023;PMS5003;59889;50.700;5.440;2023-11-22T14:01:49;14;14;
72023;PMS5003;59889;50.700;5.440;2023-11-22T14:04:15;14;13;
72023;PMS5003;59889;50.700;5.440;2023-11-22T14:06:40;13;13;
72023;PMS5003;59889;50.700;5.440;2023-11-22T14:09:05;14;13;
72023;PMS5003;59889;50.700;5.440;2023-11-22T14:11:30;13;11;
72023;PMS5003;59889;50.700;5.440;2023-11-22T14:13:56;14;12;
72023;PMS5003;59889;50.700;5.440;2023-11-22T14:16:21;13;12;
72023;PMS5003;59889;50.700;5.440;2023-11-22T14:18:47;10;10;
72023;PMS5003;59889;50.700;5.440;2023-11-22T14:21:12;13;13;
72023;PMS5003;59889;50.700;5.440;2023-11-22T14:23:37;15;15;
72023;PMS5003;59889;50.700;5.440;2023-11-22T14:26:02;12;10;
72023;PMS5003;59889;50.700;5.440;2023-11-22T14:28:27;12;11;
72023;PMS5003;59889;50.700;5.440;2023-11-22T14:30:52;12;11;
72023;PMS5003;59889;50.700;5.440;2023-11-22T14:33:17;14;13;
72023;PMS5003;59889;50.700;5.440;2023-11-22T14:35:43;12;12;
72023;PMS5003;59889;50.700;5.440;2023-11-22T14:38:08;11;11;
72023;PMS5003;59889;50.700;5.440;2023-11-22T14:40:33;14;12;
72023;PMS5003;59889;50.700;5.440;2023-11-22T14:42:58;15;15;
72023;PMS5003;59889;50.700;5.440;2023-11-22T14:45:23;10;10;
72023;PMS5003;59889;50.700;5.440;2023-11-22T14:47:49;13;11;
72023;PMS5003;59889;50.700;5.440;2023-11-22T14:50:14;13;11;
72023;PMS5003;59889;50.700;5.440;2023-11-22T14:52:39;12;12;
72023;PMS5003;59889;50.700;5.440;2023-11-22T14:55:04;12;12;
72023;PMS5003;59889;50.700;5.440;2023-11-22T14:57:30;12;12;
72023;PMS5003;59889;50.700;5.440;2023-11-22T14:59:55;13;12;
72023;PMS5003;59889;50.700;5.440;2023-11-22T15:02:19;12;11;
72023;PMS5003;59889;50.700;5.440;2023-11-22T15:04:45;13;11;
72023;PMS5003;59889;50.700;5.440;2023-11-22T15:07:10;16;12;
72023;PMS5003;59889;50.700;5.440;2023-11-22T15:09:35;11;11;
72023;PMS5003;59889;50.700;5.440;2023-11-22T15:12:01;13;13;
72023;PMS5003;59889;50.700;5.440;2023-11-22T15:14:26;13;13;
72023;PMS5003;59889;50.700;5.440;2023-11-22T15:16:51;10;10;
72023;PMS5003;59889;50.700;5.440;2023-11-22T15:19:16;13;12;
72023;PMS5003;59889;50.700;5.440;2023-11-22T15:21:41;11;11;
72023;PMS5003;59889;50.700;5.440;2023-11-22T15:24:06;14;13;
72023;PMS5003;59889;50.700;5.440;2023-11-22T15:26:32;10;10;
72023;PMS5003;59889;50.700;5.440;2023-11-22T15:28:57;12;11;
72023;PMS5003;59889;50.700;5.440;2023-11-22T15:31:22;12;11;
72023;PMS5003;59889;50.700;5.440;2023-11-22T15:33:47;9;9;
72023;PMS5003;59889;50.700;5.440;2023-11-22T15:36:12;15;15;
72023;PMS5003;59889;50.700;5.440;2023-11-22T15:38:37;12;11;
72023;PMS5003;59889;50.700;5.440;2023-11-22T15:41:02;10;10;
72023;PMS5003;59889;50.700;5.440;2023-11-22T15:43:28;10;8;
72023;PMS5003;59889;50.700;5.440;2023-11-22T15:45:53;13;12;
72023;PMS5003;59889;50.700;5.440;2023-11-22T15:48:19;11;11;
72023;PMS5003;59889;50.700;5.440;2023-11-22T15:50:44;13;11;
72023;PMS5003;59889;50.700;5.440;2023-11-22T15:53:09;11;11;
72023;PMS5003;59889;50.700;5.440;2023-11-22T15:55:34;13;11;
72023;PMS5003;59889;50.700;5.440;2023-11-22T15:58:00;13;13;
72023;PMS5003;59889;50.700;5.440;2023-11-22T16:00:25;15;13;
72023;PMS5003;59889;50.700;5.440;2023-11-22T16:02:51;12;11;
72023;PMS5003;59889;50.700;5.440;2023-11-22T16:05:16;10;10;
72023;PMS5003;59889;50.700;5.440;2023-11-22T16:07:41;10;10;
72023;PMS5003;59889;50.700;5.440;2023-11-22T16:10:06;13;10;
72023;PMS5003;59889;50.700;5.440;2023-11-22T16:12:32;10;10;
72023;PMS5003;59889;50.700;5.440;2023-11-22T16:14:56;11;9;
72023;PMS5003;59889;50.700;5.440;2023-11-22T16:17:21;9;9;